sensor_id;sensor_type;location;lat;lon;timestamp;temperature;humidity
32600;DHT22;19277;51.778;7.912;2023-08-20T00:02:18;25.50;96.50
32600;DHT22;19277;51.778;7.912;2023-08-20T00:04:48;25.50;96.30
32600;DHT22;19277;51.778;7.912;2023-08-20T00:07:14;25.40;96.30
32600;DHT22;19277;51.778;7.912;2023-08-20T00:09:41;25.30;96.30
32600;DHT22;19277;51.778;7.912;2023-08-20T00:12:07;25.30;96.30
32600;DHT22;19277;51.778;7.912;2023-08-20T00:15:01;25.20;96.40
32600;DHT22;19277;51.778;7.912;2023-08-20T00:17:34;25.20;96.60
32600;DHT22;19277;51.778;7.912;2023-08-20T00:20:00;25.10;96.80
32600;DHT22;19277;51.778;7.912;2023-08-20T00:22:26;25.10;97.00
32600;DHT22;19277;51.778;7.912;2023-08-20T00:27:27;25.20;96.80
32600;DHT22;19277;51.778;7.912;2023-08-20T00:29:52;25.30;96.70
32600;DHT22;19277;51.778;7.912;2023-08-20T00:32:18;25.30;96.50
32600;DHT22;19277;51.778;7.912;2023-08-20T00:34:44;25.30;96.00
32600;DHT22;19277;51.778;7.912;2023-08-20T00:37:09;25.00;96.50
32600;DHT22;19277;51.778;7.912;2023-08-20T00:39:35;24.80;97.40
32600;DHT22;19277;51.778;7.912;2023-08-20T00:42:00;24.70;97.50
32600;DHT22;19277;51.778;7.912;2023-08-20T00:44:26;24.70;97.60
32600;DHT22;19277;51.778;7.912;2023-08-20T00:46:53;24.70;97.40
32600;DHT22;19277;51.778;7.912;2023-08-20T00:49:18;24.70;97.50
32600;DHT22;19277;51.778;7.912;2023-08-20T00:51:44;24.80;97.60
32600;DHT22;19277;51.778;7.912;2023-08-20T00:54:10;24.90;97.70
32600;DHT22;19277;51.778;7.912;2023-08-20T00:56:37;24.90;97.30
32600;DHT22;19277;51.778;7.912;2023-08-20T00:59:04;24.90;97.40
32600;DHT22;19277;51.778;7.912;2023-08-20T01:01:31;24.90;97.30
32600;DHT22;19277;51.778;7.912;2023-08-20T01:03:56;24.90;97.40
32600;DHT22;19277;51.778;7.912;2023-08-20T01:09:30;24.90;97.40
32600;DHT22;19277;51.778;7.912;2023-08-20T01:12:02;24.90;97.20
32600;DHT22;19277;51.778;7.912;2023-08-20T01:14:28;24.90;97.10
32600;DHT22;19277;51.778;7.912;2023-08-20T01:16:54;24.90;97.20
32600;DHT22;19277;51.778;7.912;2023-08-20T01:19:21;24.90;97.10
32600;DHT22;19277;51.778;7.912;2023-08-20T01:22:02;24.90;97.20
32600;DHT22;19277;51.778;7.912;2023-08-20T01:30:24;25.10;97.30
32600;DHT22;19277;51.778;7.912;2023-08-20T01:32:51;25.10;96.90
32600;DHT22;19277;51.778;7.912;2023-08-20T01:35:17;25.10;96.80
32600;DHT22;19277;51.778;7.912;2023-08-20T01:37:43;25.10;96.70
32600;DHT22;19277;51.778;7.912;2023-08-20T01:40:10;25.10;96.40
32600;DHT22;19277;51.778;7.912;2023-08-20T01:42:39;25.10;96.60
32600;DHT22;19277;51.778;7.912;2023-08-20T01:45:06;25.00;96.80
32600;DHT22;19277;51.778;7.912;2023-08-20T01:47:32;25.00;96.90
32600;DHT22;19277;51.778;7.912;2023-08-20T01:49:58;25.00;97.10
32600;DHT22;19277;51.778;7.912;2023-08-20T01:52:24;25.00;96.90
32600;DHT22;19277;51.778;7.912;2023-08-20T01:54:50;25.00;96.80
32600;DHT22;19277;51.778;7.912;2023-08-20T01:57:15;25.00;96.90
32600;DHT22;19277;51.778;7.912;2023-08-20T01:59:42;25.00;97.00
32600;DHT22;19277;51.778;7.912;2023-08-20T02:02:07;25.00;97.00
32600;DHT22;19277;51.778;7.912;2023-08-20T02:04:33;25.00;97.10
32600;DHT22;19277;51.778;7.912;2023-08-20T02:06:59;25.00;97.00
32600;DHT22;19277;51.778;7.912;2023-08-20T02:09:24;25.00;96.70
32600;DHT22;19277;51.778;7.912;2023-08-20T02:11:51;25.00;97.20
32600;DHT22;19277;51.778;7.912;2023-08-20T02:14:16;25.10;97.30
32600;DHT22;19277;51.778;7.912;2023-08-20T02:16:42;25.10;96.90
32600;DHT22;19277;51.778;7.912;2023-08-20T02:19:08;25.10;96.50
32600;DHT22;19277;51.778;7.912;2023-08-20T02:21:33;25.10;96.50
32600;DHT22;19277;51.778;7.912;2023-08-20T02:23:59;25.00;96.90
32600;DHT22;19277;51.778;7.912;2023-08-20T02:26:25;25.00;97.00
32600;DHT22;19277;51.778;7.912;2023-08-20T02:28:50;25.00;96.90
32600;DHT22;19277;51.778;7.912;2023-08-20T02:31:16;25.00;97.00
32600;DHT22;19277;51.778;7.912;2023-08-20T02:33:41;25.00;96.90
32600;DHT22;19277;51.778;7.912;2023-08-20T02:36:07;25.00;96.40
32600;DHT22;19277;51.778;7.912;2023-08-20T02:38:33;24.90;96.50
32600;DHT22;19277;51.778;7.912;2023-08-20T02:40:58;24.90;96.80
32600;DHT22;19277;51.778;7.912;2023-08-20T02:43:24;24.90;96.90
32600;DHT22;19277;51.778;7.912;2023-08-20T02:45:49;24.90;97.00
32600;DHT22;19277;51.778;7.912;2023-08-20T02:48:15;24.90;97.00
32600;DHT22;19277;51.778;7.912;2023-08-20T02:50:41;24.80;97.00
32600;DHT22;19277;51.778;7.912;2023-08-20T02:53:07;24.90;97.00
32600;DHT22;19277;51.778;7.912;2023-08-20T02:55:33;24.80;96.90
32600;DHT22;19277;51.778;7.912;2023-08-20T02:57:59;24.80;97.00
32600;DHT22;19277;51.778;7.912;2023-08-20T03:00:25;24.80;97.00
32600;DHT22;19277;51.778;7.912;2023-08-20T03:02:50;24.80;97.20
32600;DHT22;19277;51.778;7.912;2023-08-20T03:05:16;24.80;97.00
32600;DHT22;19277;51.778;7.912;2023-08-20T03:07:41;24.90;96.90
32600;DHT22;19277;51.778;7.912;2023-08-20T03:10:07;24.90;96.90
32600;DHT22;19277;51.778;7.912;2023-08-20T03:12:33;24.90;96.80
32600;DHT22;19277;51.778;7.912;2023-08-20T03:14:59;24.90;96.90
32600;DHT22;19277;51.778;7.912;2023-08-20T03:17:25;24.90;96.70
32600;DHT22;19277;51.778;7.912;2023-08-20T03:19:58;24.90;96.80
32600;DHT22;19277;51.778;7.912;2023-08-20T03:22:25;24.90;97.10
32600;DHT22;19277;51.778;7.912;2023-08-20T03:24:52;24.90;96.70
32600;DHT22;19277;51.778;7.912;2023-08-20T03:27:18;24.90;96.70
32600;DHT22;19277;51.778;7.912;2023-08-20T03:29:44;24.90;96.70
32600;DHT22;19277;51.778;7.912;2023-08-20T03:32:10;24.90;96.70
32600;DHT22;19277;51.778;7.912;2023-08-20T03:34:35;24.90;97.00
32600;DHT22;19277;51.778;7.912;2023-08-20T03:37:01;25.00;96.90
32600;DHT22;19277;51.778;7.912;2023-08-20T03:39:27;25.00;96.60
32600;DHT22;19277;51.778;7.912;2023-08-20T03:41:53;25.00;96.70
32600;DHT22;19277;51.778;7.912;2023-08-20T03:44:19;25.00;96.60
32600;DHT22;19277;51.778;7.912;2023-08-20T03:46:45;25.00;96.60
32600;DHT22;19277;51.778;7.912;2023-08-20T03:49:10;25.00;96.50
32600;DHT22;19277;51.778;7.912;2023-08-20T03:51:36;24.90;96.50
32600;DHT22;19277;51.778;7.912;2023-08-20T03:54:02;24.90;96.40
32600;DHT22;19277;51.778;7.912;2023-08-20T03:56:28;24.90;96.70
32600;DHT22;19277;51.778;7.912;2023-08-20T03:58:54;24.90;96.90
32600;DHT22;19277;51.778;7.912;2023-08-20T04:01:19;24.90;96.70
32600;DHT22;19277;51.778;7.912;2023-08-20T04:03:46;24.90;96.70
32600;DHT22;19277;51.778;7.912;2023-08-20T04:06:12;24.90;96.70
32600;DHT22;19277;51.778;7.912;2023-08-20T04:08:38;24.90;96.60
32600;DHT22;19277;51.778;7.912;2023-08-20T04:11:03;24.90;96.60
32600;DHT22;19277;51.778;7.912;2023-08-20T04:13:29;24.90;96.40
32600;DHT22;19277;51.778;7.912;2023-08-20T04:15:55;24.90;96.10
32600;DHT22;19277;51.778;7.912;2023-08-20T04:18:21;24.90;96.40
32600;DHT22;19277;51.778;7.912;2023-08-20T04:20:47;24.80;96.20
32600;DHT22;19277;51.778;7.912;2023-08-20T04:23:13;24.80;96.30
32600;DHT22;19277;51.778;7.912;2023-08-20T04:25:38;24.80;96.60
32600;DHT22;19277;51.778;7.912;2023-08-20T04:28:05;24.70;96.30
32600;DHT22;19277;51.778;7.912;2023-08-20T04:30:31;24.70;96.30
32600;DHT22;19277;51.778;7.912;2023-08-20T04:32:56;24.70;96.10
32600;DHT22;19277;51.778;7.912;2023-08-20T04:35:22;24.60;96.40
32600;DHT22;19277;51.778;7.912;2023-08-20T04:37:47;24.70;96.80
32600;DHT22;19277;51.778;7.912;2023-08-20T04:40:13;24.70;96.60
32600;DHT22;19277;51.778;7.912;2023-08-20T04:42:39;24.70;96.40
32600;DHT22;19277;51.778;7.912;2023-08-20T04:45:04;24.70;96.30
32600;DHT22;19277;51.778;7.912;2023-08-20T04:47:30;24.70;96.30
32600;DHT22;19277;51.778;7.912;2023-08-20T04:49:56;24.70;96.20
32600;DHT22;19277;51.778;7.912;2023-08-20T04:52:21;24.70;96.20
32600;DHT22;19277;51.778;7.912;2023-08-20T04:54:47;24.70;96.40
32600;DHT22;19277;51.778;7.912;2023-08-20T04:57:13;24.70;96.30
32600;DHT22;19277;51.778;7.912;2023-08-20T04:59:38;24.70;96.40
32600;DHT22;19277;51.778;7.912;2023-08-20T05:02:04;24.70;96.80
32600;DHT22;19277;51.778;7.912;2023-08-20T05:04:30;24.80;96.80
32600;DHT22;19277;51.778;7.912;2023-08-20T05:06:55;24.90;96.90
32600;DHT22;19277;51.778;7.912;2023-08-20T05:09:21;24.90;96.40
32600;DHT22;19277;51.778;7.912;2023-08-20T05:11:47;25.00;96.40
32600;DHT22;19277;51.778;7.912;2023-08-20T05:14:12;25.10;96.20
32600;DHT22;19277;51.778;7.912;2023-08-20T05:16:38;25.10;96.10
32600;DHT22;19277;51.778;7.912;2023-08-20T05:19:03;25.10;96.30
32600;DHT22;19277;51.778;7.912;2023-08-20T05:21:29;25.20;96.30
32600;DHT22;19277;51.778;7.912;2023-08-20T05:23:55;25.20;96.20
32600;DHT22;19277;51.778;7.912;2023-08-20T05:26:21;25.30;96.00
32600;DHT22;19277;51.778;7.912;2023-08-20T05:28:47;25.30;96.00
32600;DHT22;19277;51.778;7.912;2023-08-20T05:31:13;25.40;96.00
32600;DHT22;19277;51.778;7.912;2023-08-20T05:33:38;25.40;95.80
32600;DHT22;19277;51.778;7.912;2023-08-20T05:36:04;25.50;95.70
32600;DHT22;19277;51.778;7.912;2023-08-20T05:38:30;25.60;95.70
32600;DHT22;19277;51.778;7.912;2023-08-20T05:40:55;25.60;95.50
32600;DHT22;19277;51.778;7.912;2023-08-20T05:43:21;25.70;95.40
32600;DHT22;19277;51.778;7.912;2023-08-20T05:45:47;25.80;95.20
32600;DHT22;19277;51.778;7.912;2023-08-20T05:48:12;25.90;95.20
32600;DHT22;19277;51.778;7.912;2023-08-20T05:50:38;25.90;95.00
32600;DHT22;19277;51.778;7.912;2023-08-20T05:53:04;26.00;95.00
32600;DHT22;19277;51.778;7.912;2023-08-20T05:55:29;26.00;94.90
32600;DHT22;19277;51.778;7.912;2023-08-20T05:57:55;26.00;94.90
32600;DHT22;19277;51.778;7.912;2023-08-20T06:00:20;26.00;94.80
32600;DHT22;19277;51.778;7.912;2023-08-20T06:02:46;26.00;95.00
32600;DHT22;19277;51.778;7.912;2023-08-20T06:05:12;26.00;95.00
32600;DHT22;19277;51.778;7.912;2023-08-20T06:07:38;26.00;95.10
32600;DHT22;19277;51.778;7.912;2023-08-20T06:10:04;25.90;95.10
32600;DHT22;19277;51.778;7.912;2023-08-20T06:12:30;25.90;95.20
32600;DHT22;19277;51.778;7.912;2023-08-20T06:14:56;25.90;95.30
32600;DHT22;19277;51.778;7.912;2023-08-20T06:17:21;25.90;95.40
32600;DHT22;19277;51.778;7.912;2023-08-20T06:19:47;25.90;95.50
32600;DHT22;19277;51.778;7.912;2023-08-20T06:22:12;26.00;95.40
32600;DHT22;19277;51.778;7.912;2023-08-20T06:24:38;26.00;95.50
32600;DHT22;19277;51.778;7.912;2023-08-20T06:27:04;26.00;95.40
32600;DHT22;19277;51.778;7.912;2023-08-20T06:29:29;26.00;95.60
32600;DHT22;19277;51.778;7.912;2023-08-20T06:31:55;26.10;95.40
32600;DHT22;19277;51.778;7.912;2023-08-20T06:34:20;26.10;95.50
32600;DHT22;19277;51.778;7.912;2023-08-20T06:36:47;26.20;95.40
32600;DHT22;19277;51.778;7.912;2023-08-20T06:39:13;26.20;95.50
32600;DHT22;19277;51.778;7.912;2023-08-20T06:41:40;26.10;95.50
32600;DHT22;19277;51.778;7.912;2023-08-20T06:44:06;26.10;95.60
32600;DHT22;19277;51.778;7.912;2023-08-20T06:46:32;26.10;95.90
32600;DHT22;19277;51.778;7.912;2023-08-20T06:48:57;26.10;95.90
32600;DHT22;19277;51.778;7.912;2023-08-20T06:51:23;26.10;96.10
32600;DHT22;19277;51.778;7.912;2023-08-20T06:53:50;26.10;96.10
32600;DHT22;19277;51.778;7.912;2023-08-20T06:56:16;26.10;95.90
32600;DHT22;19277;51.778;7.912;2023-08-20T06:58:42;26.10;96.00
32600;DHT22;19277;51.778;7.912;2023-08-20T07:01:08;26.10;96.10
32600;DHT22;19277;51.778;7.912;2023-08-20T07:03:41;26.10;96.00
32600;DHT22;19277;51.778;7.912;2023-08-20T07:06:08;26.10;96.10
32600;DHT22;19277;51.778;7.912;2023-08-20T07:08:35;26.10;96.10
32600;DHT22;19277;51.778;7.912;2023-08-20T07:11:00;26.10;96.30
32600;DHT22;19277;51.778;7.912;2023-08-20T07:13:26;26.10;96.20
32600;DHT22;19277;51.778;7.912;2023-08-20T07:15:52;26.20;96.10
32600;DHT22;19277;51.778;7.912;2023-08-20T07:18:18;26.20;96.10
32600;DHT22;19277;51.778;7.912;2023-08-20T07:20:44;26.20;96.00
32600;DHT22;19277;51.778;7.912;2023-08-20T07:23:10;26.20;95.90
32600;DHT22;19277;51.778;7.912;2023-08-20T07:25:40;26.20;96.00
32600;DHT22;19277;51.778;7.912;2023-08-20T07:28:07;26.20;96.10
32600;DHT22;19277;51.778;7.912;2023-08-20T07:30:37;26.20;96.00
32600;DHT22;19277;51.778;7.912;2023-08-20T07:33:03;26.20;96.00
32600;DHT22;19277;51.778;7.912;2023-08-20T07:35:29;26.20;95.90
32600;DHT22;19277;51.778;7.912;2023-08-20T07:37:55;26.20;96.00
32600;DHT22;19277;51.778;7.912;2023-08-20T07:40:20;26.20;95.90
32600;DHT22;19277;51.778;7.912;2023-08-20T07:42:46;26.30;95.90
32600;DHT22;19277;51.778;7.912;2023-08-20T07:45:12;26.30;96.10
32600;DHT22;19277;51.778;7.912;2023-08-20T07:47:39;26.30;95.80
32600;DHT22;19277;51.778;7.912;2023-08-20T07:50:05;26.30;95.70
32600;DHT22;19277;51.778;7.912;2023-08-20T07:52:32;26.30;95.80
32600;DHT22;19277;51.778;7.912;2023-08-20T07:54:58;26.30;95.70
32600;DHT22;19277;51.778;7.912;2023-08-20T07:57:24;26.30;95.70
32600;DHT22;19277;51.778;7.912;2023-08-20T07:59:50;26.40;95.60
32600;DHT22;19277;51.778;7.912;2023-08-20T08:02:16;26.40;95.70
32600;DHT22;19277;51.778;7.912;2023-08-20T08:04:42;26.40;95.60
32600;DHT22;19277;51.778;7.912;2023-08-20T08:07:09;26.40;95.60
32600;DHT22;19277;51.778;7.912;2023-08-20T08:09:35;26.40;95.60
32600;DHT22;19277;51.778;7.912;2023-08-20T08:12:02;26.40;95.50
32600;DHT22;19277;51.778;7.912;2023-08-20T08:14:28;26.50;95.60
32600;DHT22;19277;51.778;7.912;2023-08-20T08:16:54;26.50;95.60
32600;DHT22;19277;51.778;7.912;2023-08-20T08:19:20;26.50;95.60
32600;DHT22;19277;51.778;7.912;2023-08-20T08:21:46;26.40;95.70
32600;DHT22;19277;51.778;7.912;2023-08-20T08:24:13;26.50;95.70
32600;DHT22;19277;51.778;7.912;2023-08-20T08:26:39;26.50;95.50
32600;DHT22;19277;51.778;7.912;2023-08-20T08:29:06;26.50;95.80
32600;DHT22;19277;51.778;7.912;2023-08-20T08:31:32;26.50;95.90
32600;DHT22;19277;51.778;7.912;2023-08-20T08:33:57;26.50;96.10
32600;DHT22;19277;51.778;7.912;2023-08-20T08:36:24;26.50;96.20
32600;DHT22;19277;51.778;7.912;2023-08-20T08:38:52;26.50;96.10
32600;DHT22;19277;51.778;7.912;2023-08-20T08:41:21;26.50;96.10
32600;DHT22;19277;51.778;7.912;2023-08-20T08:43:49;26.50;96.10
32600;DHT22;19277;51.778;7.912;2023-08-20T08:46:15;26.50;96.20
32600;DHT22;19277;51.778;7.912;2023-08-20T08:48:42;26.50;96.20
32600;DHT22;19277;51.778;7.912;2023-08-20T08:51:09;26.50;96.30
32600;DHT22;19277;51.778;7.912;2023-08-20T08:53:35;26.50;96.50
32600;DHT22;19277;51.778;7.912;2023-08-20T08:56:01;26.50;96.30
32600;DHT22;19277;51.778;7.912;2023-08-20T08:58:28;26.50;96.40
32600;DHT22;19277;51.778;7.912;2023-08-20T09:00:54;26.50;96.40
32600;DHT22;19277;51.778;7.912;2023-08-20T09:03:19;26.50;96.40
32600;DHT22;19277;51.778;7.912;2023-08-20T09:05:49;26.50;96.30
32600;DHT22;19277;51.778;7.912;2023-08-20T09:10:49;26.50;96.30
32600;DHT22;19277;51.778;7.912;2023-08-20T09:13:15;26.50;96.30
32600;DHT22;19277;51.778;7.912;2023-08-20T09:15:41;26.50;96.20
32600;DHT22;19277;51.778;7.912;2023-08-20T09:18:09;26.50;96.40
32600;DHT22;19277;51.778;7.912;2023-08-20T09:20:38;26.50;96.40
32600;DHT22;19277;51.778;7.912;2023-08-20T09:23:10;26.50;96.40
32600;DHT22;19277;51.778;7.912;2023-08-20T09:25:36;26.50;96.50
32600;DHT22;19277;51.778;7.912;2023-08-20T09:28:04;26.50;96.20
32600;DHT22;19277;51.778;7.912;2023-08-20T09:30:31;26.50;96.00
32600;DHT22;19277;51.778;7.912;2023-08-20T09:33:12;26.50;96.00
32600;DHT22;19277;51.778;7.912;2023-08-20T09:35:48;26.50;95.40
32600;DHT22;19277;51.778;7.912;2023-08-20T09:38:14;26.60;95.20
32600;DHT22;19277;51.778;7.912;2023-08-20T09:40:40;26.50;94.70
32600;DHT22;19277;51.778;7.912;2023-08-20T09:43:07;26.60;95.40
32600;DHT22;19277;51.778;7.912;2023-08-20T09:45:34;26.60;95.70
32600;DHT22;19277;51.778;7.912;2023-08-20T09:48:05;26.60;95.90
32600;DHT22;19277;51.778;7.912;2023-08-20T09:50:35;26.60;95.80
32600;DHT22;19277;51.778;7.912;2023-08-20T09:53:09;26.60;96.00
32600;DHT22;19277;51.778;7.912;2023-08-20T09:55:39;26.60;95.90
32600;DHT22;19277;51.778;7.912;2023-08-20T09:58:06;26.60;95.80
32600;DHT22;19277;51.778;7.912;2023-08-20T10:00:32;26.60;96.00
32600;DHT22;19277;51.778;7.912;2023-08-20T10:02:58;26.60;94.70
32600;DHT22;19277;51.778;7.912;2023-08-20T10:05:25;26.60;95.10
32600;DHT22;19277;51.778;7.912;2023-08-20T10:07:51;26.70;94.40
32600;DHT22;19277;51.778;7.912;2023-08-20T10:10:18;26.70;94.20
32600;DHT22;19277;51.778;7.912;2023-08-20T10:12:43;26.70;93.70
32600;DHT22;19277;51.778;7.912;2023-08-20T10:15:12;26.70;93.40
32600;DHT22;19277;51.778;7.912;2023-08-20T10:17:41;26.70;93.10
32600;DHT22;19277;51.778;7.912;2023-08-20T10:20:08;26.70;93.70
32600;DHT22;19277;51.778;7.912;2023-08-20T10:25:09;26.70;92.20
32600;DHT22;19277;51.778;7.912;2023-08-20T10:27:37;26.70;92.90
32600;DHT22;19277;51.778;7.912;2023-08-20T10:30:08;26.70;93.90
32600;DHT22;19277;51.778;7.912;2023-08-20T10:32:53;26.70;93.50
32600;DHT22;19277;51.778;7.912;2023-08-20T10:38:06;26.60;91.10
32600;DHT22;19277;51.778;7.912;2023-08-20T10:40:55;26.60;91.30
32600;DHT22;19277;51.778;7.912;2023-08-20T10:43:30;26.60;91.50
32600;DHT22;19277;51.778;7.912;2023-08-20T10:46:23;26.60;91.40
32600;DHT22;19277;51.778;7.912;2023-08-20T10:49:02;26.70;91.30
32600;DHT22;19277;51.778;7.912;2023-08-20T10:51:33;26.70;91.10
32600;DHT22;19277;51.778;7.912;2023-08-20T10:54:02;26.70;91.40
32600;DHT22;19277;51.778;7.912;2023-08-20T10:59:39;26.70;93.30
32600;DHT22;19277;51.778;7.912;2023-08-20T11:02:07;26.70;92.70
32600;DHT22;19277;51.778;7.912;2023-08-20T11:04:35;26.70;91.60
32600;DHT22;19277;51.778;7.912;2023-08-20T11:07:02;26.70;90.80
32600;DHT22;19277;51.778;7.912;2023-08-20T11:09:29;26.70;91.50
32600;DHT22;19277;51.778;7.912;2023-08-20T11:11:56;26.70;91.50
32600;DHT22;19277;51.778;7.912;2023-08-20T11:14:22;26.80;92.20
32600;DHT22;19277;51.778;7.912;2023-08-20T11:16:49;26.80;92.10
32600;DHT22;19277;51.778;7.912;2023-08-20T11:19:18;26.80;92.60
32600;DHT22;19277;51.778;7.912;2023-08-20T11:21:44;26.80;92.00
32600;DHT22;19277;51.778;7.912;2023-08-20T11:24:11;26.80;92.30
32600;DHT22;19277;51.778;7.912;2023-08-20T11:26:41;26.80;92.60
32600;DHT22;19277;51.778;7.912;2023-08-20T11:29:11;26.90;93.50
32600;DHT22;19277;51.778;7.912;2023-08-20T11:31:45;26.80;92.60
32600;DHT22;19277;51.778;7.912;2023-08-20T11:34:11;26.90;93.20
32600;DHT22;19277;51.778;7.912;2023-08-20T11:36:38;26.80;91.50
32600;DHT22;19277;51.778;7.912;2023-08-20T11:39:05;26.90;93.40
32600;DHT22;19277;51.778;7.912;2023-08-20T11:41:30;26.90;93.80
32600;DHT22;19277;51.778;7.912;2023-08-20T11:43:56;26.90;94.10
32600;DHT22;19277;51.778;7.912;2023-08-20T11:46:23;26.90;94.00
32600;DHT22;19277;51.778;7.912;2023-08-20T11:49:06;26.90;92.30
32600;DHT22;19277;51.778;7.912;2023-08-20T11:51:50;26.90;93.00
32600;DHT22;19277;51.778;7.912;2023-08-20T11:54:17;26.90;92.10
32600;DHT22;19277;51.778;7.912;2023-08-20T11:56:49;26.90;93.20
32600;DHT22;19277;51.778;7.912;2023-08-20T11:59:16;26.90;92.50
32600;DHT22;19277;51.778;7.912;2023-08-20T12:01:42;26.90;92.60
32600;DHT22;19277;51.778;7.912;2023-08-20T12:04:09;26.90;94.10
32600;DHT22;19277;51.778;7.912;2023-08-20T12:06:36;26.90;94.50
32600;DHT22;19277;51.778;7.912;2023-08-20T12:09:21;26.90;92.30
32600;DHT22;19277;51.778;7.912;2023-08-20T12:11:51;27.00;92.80
32600;DHT22;19277;51.778;7.912;2023-08-20T12:14:20;27.00;92.20
32600;DHT22;19277;51.778;7.912;2023-08-20T12:16:46;27.00;92.90
32600;DHT22;19277;51.778;7.912;2023-08-20T12:19:12;27.00;92.60
32600;DHT22;19277;51.778;7.912;2023-08-20T12:21:39;27.00;93.60
32600;DHT22;19277;51.778;7.912;2023-08-20T12:24:05;27.00;92.90
32600;DHT22;19277;51.778;7.912;2023-08-20T12:26:31;27.00;91.80
32600;DHT22;19277;51.778;7.912;2023-08-20T12:28:57;27.00;92.50
32600;DHT22;19277;51.778;7.912;2023-08-20T12:31:22;27.00;93.60
32600;DHT22;19277;51.778;7.912;2023-08-20T12:33:48;27.00;93.70
32600;DHT22;19277;51.778;7.912;2023-08-20T12:36:14;27.00;93.80
32600;DHT22;19277;51.778;7.912;2023-08-20T12:38:39;27.00;94.50
32600;DHT22;19277;51.778;7.912;2023-08-20T12:41:06;27.10;92.20
32600;DHT22;19277;51.778;7.912;2023-08-20T12:43:32;27.10;92.70
32600;DHT22;19277;51.778;7.912;2023-08-20T12:45:57;27.10;93.80
32600;DHT22;19277;51.778;7.912;2023-08-20T12:48:23;27.10;93.40
32600;DHT22;19277;51.778;7.912;2023-08-20T12:50:49;27.10;92.10
32600;DHT22;19277;51.778;7.912;2023-08-20T12:53:14;27.10;93.10
32600;DHT22;19277;51.778;7.912;2023-08-20T12:55:40;27.10;91.30
32600;DHT22;19277;51.778;7.912;2023-08-20T12:58:06;27.10;91.40
32600;DHT22;19277;51.778;7.912;2023-08-20T13:00:31;27.10;91.20
32600;DHT22;19277;51.778;7.912;2023-08-20T13:02:58;27.10;92.60
32600;DHT22;19277;51.778;7.912;2023-08-20T13:05:24;27.10;91.10
32600;DHT22;19277;51.778;7.912;2023-08-20T13:07:51;27.10;91.10
32600;DHT22;19277;51.778;7.912;2023-08-20T13:10:17;27.20;91.80
32600;DHT22;19277;51.778;7.912;2023-08-20T13:12:48;27.20;91.80
32600;DHT22;19277;51.778;7.912;2023-08-20T13:15:16;27.20;92.10
32600;DHT22;19277;51.778;7.912;2023-08-20T13:17:42;27.20;91.30
32600;DHT22;19277;51.778;7.912;2023-08-20T13:20:08;27.20;93.00
32600;DHT22;19277;51.778;7.912;2023-08-20T13:22:35;27.20;93.20
32600;DHT22;19277;51.778;7.912;2023-08-20T13:25:01;27.10;93.30
32600;DHT22;19277;51.778;7.912;2023-08-20T13:27:26;27.00;93.10
32600;DHT22;19277;51.778;7.912;2023-08-20T13:29:52;27.10;92.90
32600;DHT22;19277;51.778;7.912;2023-08-20T13:32:19;27.10;93.10
32600;DHT22;19277;51.778;7.912;2023-08-20T13:34:45;27.10;93.90
32600;DHT22;19277;51.778;7.912;2023-08-20T13:37:10;27.10;93.20
32600;DHT22;19277;51.778;7.912;2023-08-20T13:39:36;27.10;92.70
32600;DHT22;19277;51.778;7.912;2023-08-20T13:42:01;27.10;92.10
32600;DHT22;19277;51.778;7.912;2023-08-20T13:44:27;27.10;93.10
32600;DHT22;19277;51.778;7.912;2023-08-20T13:46:53;27.20;93.90
32600;DHT22;19277;51.778;7.912;2023-08-20T13:49:18;27.20;93.70
32600;DHT22;19277;51.778;7.912;2023-08-20T13:51:44;27.20;93.60
32600;DHT22;19277;51.778;7.912;2023-08-20T13:54:10;27.20;93.60
32600;DHT22;19277;51.778;7.912;2023-08-20T13:56:35;27.20;93.20
32600;DHT22;19277;51.778;7.912;2023-08-20T13:59:01;27.20;92.60
32600;DHT22;19277;51.778;7.912;2023-08-20T14:01:27;27.20;92.40
32600;DHT22;19277;51.778;7.912;2023-08-20T14:03:52;27.20;92.90
32600;DHT22;19277;51.778;7.912;2023-08-20T14:06:19;27.20;92.20
32600;DHT22;19277;51.778;7.912;2023-08-20T14:08:44;27.20;91.90
32600;DHT22;19277;51.778;7.912;2023-08-20T14:11:10;27.20;92.40
32600;DHT22;19277;51.778;7.912;2023-08-20T14:13:36;27.20;91.40
32600;DHT22;19277;51.778;7.912;2023-08-20T14:16:02;27.20;92.20
32600;DHT22;19277;51.778;7.912;2023-08-20T14:18:27;27.20;92.70
32600;DHT22;19277;51.778;7.912;2023-08-20T14:20:53;27.20;91.90
32600;DHT22;19277;51.778;7.912;2023-08-20T14:23:19;27.20;90.90
32600;DHT22;19277;51.778;7.912;2023-08-20T14:25:44;27.20;92.30
32600;DHT22;19277;51.778;7.912;2023-08-20T14:28:10;27.10;91.30
32600;DHT22;19277;51.778;7.912;2023-08-20T14:30:39;27.20;90.40
32600;DHT22;19277;51.778;7.912;2023-08-20T14:33:05;27.20;90.00
32600;DHT22;19277;51.778;7.912;2023-08-20T14:35:32;27.20;91.00
32600;DHT22;19277;51.778;7.912;2023-08-20T14:37:58;27.20;91.60
32600;DHT22;19277;51.778;7.912;2023-08-20T14:40:23;27.20;90.90
32600;DHT22;19277;51.778;7.912;2023-08-20T14:42:49;27.20;91.80
32600;DHT22;19277;51.778;7.912;2023-08-20T14:45:15;27.20;91.40
32600;DHT22;19277;51.778;7.912;2023-08-20T14:47:41;27.20;92.00
32600;DHT22;19277;51.778;7.912;2023-08-20T14:50:07;27.20;91.70
32600;DHT22;19277;51.778;7.912;2023-08-20T14:52:33;27.20;92.00
32600;DHT22;19277;51.778;7.912;2023-08-20T14:54:59;27.20;91.90
32600;DHT22;19277;51.778;7.912;2023-08-20T14:57:29;27.20;92.00
32600;DHT22;19277;51.778;7.912;2023-08-20T14:59:55;27.20;91.50
32600;DHT22;19277;51.778;7.912;2023-08-20T15:02:20;27.20;92.40
32600;DHT22;19277;51.778;7.912;2023-08-20T15:04:46;27.20;92.10
32600;DHT22;19277;51.778;7.912;2023-08-20T15:07:12;27.30;92.20
32600;DHT22;19277;51.778;7.912;2023-08-20T15:09:37;27.20;91.60
32600;DHT22;19277;51.778;7.912;2023-08-20T15:12:03;27.30;92.20
32600;DHT22;19277;51.778;7.912;2023-08-20T15:14:29;27.30;92.20
32600;DHT22;19277;51.778;7.912;2023-08-20T15:16:54;27.30;92.00
32600;DHT22;19277;51.778;7.912;2023-08-20T15:19:21;27.30;92.10
32600;DHT22;19277;51.778;7.912;2023-08-20T15:21:46;27.30;92.30
32600;DHT22;19277;51.778;7.912;2023-08-20T15:24:12;27.20;91.80
32600;DHT22;19277;51.778;7.912;2023-08-20T15:26:37;27.30;92.30
32600;DHT22;19277;51.778;7.912;2023-08-20T15:29:03;27.30;91.80
32600;DHT22;19277;51.778;7.912;2023-08-20T15:31:28;27.30;92.30
32600;DHT22;19277;51.778;7.912;2023-08-20T15:33:54;27.30;91.40
32600;DHT22;19277;51.778;7.912;2023-08-20T15:36:20;27.30;91.90
32600;DHT22;19277;51.778;7.912;2023-08-20T15:38:47;27.30;92.40
32600;DHT22;19277;51.778;7.912;2023-08-20T15:41:13;27.30;91.90
32600;DHT22;19277;51.778;7.912;2023-08-20T15:43:40;27.30;91.30
32600;DHT22;19277;51.778;7.912;2023-08-20T15:46:06;27.30;91.30
32600;DHT22;19277;51.778;7.912;2023-08-20T15:48:32;27.30;91.50
32600;DHT22;19277;51.778;7.912;2023-08-20T15:50:57;27.30;91.50